Time;durP1;ratioP1;P1;durP2;ratioP2;P2;SDS_P1;SDS_P2;PMS_P1;PMS_P2;Temp;Humidity;BMP_temperature;BMP_pressure;BME280_temperature;BME280_humidity;BME280_pressure;Samples;Min_cycle;Max_cycle;Signal;HPM_P1;HPM_P2
2022/05/21 00:00:30;;;;;;;6.00;5.37;;;;;;;;;;5075152;28;20182;-64
2022/05/21 00:02:56;;;;;;;8.27;5.03;;;;;;;;;;5074583;28;20202;-65
2022/05/21 00:05:24;;;;;;;7.87;5.60;;;;;;;;;;5056567;28;20645;-64
2022/05/21 00:07:51;;;;;;;7.40;5.73;;;;;;;;;;5074650;28;20629;-64
2022/05/21 00:10:17;;;;;;;8.87;5.83;;;;;;;;;;5074473;28;20177;-66
2022/05/21 00:12:44;;;;;;;7.10;5.67;;;;;;;;;;5074359;28;20180;-66
2022/05/21 00:15:11;;;;;;;6.97;5.37;;;;;;;;;;5074675;28;20581;-65
2022/05/21 00:17:37;;;;;;;6.37;5.67;;;;;;;;;;5074244;28;20178;-64
2022/05/21 00:20:03;;;;;;;8.37;6.60;;;;;;;;;;5074388;28;20177;-65
2022/05/21 00:22:29;;;;;;;8.27;7.38;;;;;;;;;;5055938;28;20404;-65
2022/05/21 00:24:55;;;;;;;8.80;6.63;;;;;;;;;;5074535;28;20170;-65
2022/05/21 00:27:21;;;;;;;8.67;6.60;;;;;;;;;;5074090;28;20293;-65
2022/05/21 00:29:47;;;;;;;7.27;6.43;;;;;;;;;;5074204;28;20209;-65
2022/05/21 00:32:14;;;;;;;8.17;6.50;;;;;;;;;;5056256;28;20746;-64
2022/05/21 00:34:40;;;;;;;9.07;6.70;;;;;;;;;;5056289;28;20231;-65
2022/05/21 00:37:06;;;;;;;9.07;6.87;;;;;;;;;;5074123;28;20182;-65
2022/05/21 00:39:32;;;;;;;8.00;6.57;;;;;;;;;;5073861;28;20201;-65
2022/05/21 00:42:06;;;;;;;8.90;7.43;;;;;;;;;;5073957;28;20202;-65
2022/05/21 00:44:32;;;;;;;9.30;7.13;;;;;;;;;;5073996;28;20180;-65
2022/05/21 00:46:58;;;;;;;10.03;7.53;;;;;;;;;;5056105;28;20178;-65
2022/05/21 00:49:29;;;;;;;8.20;6.87;;;;;;;;;;5073922;28;20633;-65
2022/05/21 00:51:58;;;;;;;8.53;6.43;;;;;;;;;;5073878;28;20553;-64
2022/05/21 00:54:28;;;;;;;9.10;6.53;;;;;;;;;;5056169;28;20188;-65
2022/05/21 00:56:56;;;;;;;12.73;7.33;;;;;;;;;;5074409;28;20180;-65
2022/05/21 01:02:08;;;;;;;11.00;7.37;;;;;;;;;;5076485;28;20231;-65
2022/05/21 01:04:35;;;;;;;9.57;8.03;;;;;;;;;;5075950;28;20671;-64
2022/05/21 01:07:02;;;;;;;9.53;7.37;;;;;;;;;;5076323;28;20180;-64
2022/05/21 01:09:28;;;;;;;8.47;7.10;;;;;;;;;;5056670;28;20198;-65
2022/05/21 01:11:55;;;;;;;9.30;7.10;;;;;;;;;;5073955;28;20181;-65
2022/05/21 01:14:22;;;;;;;8.53;6.90;;;;;;;;;;5073777;28;20188;-65
2022/05/21 01:16:49;;;;;;;7.60;6.73;;;;;;;;;;5073511;28;20188;-66
2022/05/21 01:19:15;;;;;;;10.07;7.10;;;;;;;;;;5055260;28;20244;-65
2022/05/21 01:21:41;;;;;;;8.87;6.53;;;;;;;;;;5072909;28;20225;-65
2022/05/21 01:24:08;;;;;;;8.57;6.23;;;;;;;;;;5073305;28;20232;-64
2022/05/21 01:26:34;;;;;;;7.87;6.20;;;;;;;;;;5073491;28;20522;-65
2022/05/21 01:29:02;;;;;;;7.40;5.73;;;;;;;;;;5073148;28;20592;-65
2022/05/21 01:31:28;;;;;;;9.77;6.30;;;;;;;;;;5074038;28;20181;-65
2022/05/21 01:33:54;;;;;;;6.90;5.37;;;;;;;;;;5055281;28;20204;-65
2022/05/21 01:36:20;;;;;;;8.10;6.07;;;;;;;;;;5073400;28;20181;-65
2022/05/21 01:38:47;;;;;;;6.50;5.80;;;;;;;;;;5073403;28;20692;-65
2022/05/21 01:41:13;;;;;;;5.40;4.90;;;;;;;;;;5073024;28;20174;-65
2022/05/21 01:46:24;;;;;;;5.93;5.07;;;;;;;;;;5073770;28;20173;-65
2022/05/21 01:48:50;;;;;;;7.80;5.20;;;;;;;;;;5072986;28;20189;-65
2022/05/21 01:51:16;;;;;;;5.07;4.37;;;;;;;;;;5073077;28;20543;-65
2022/05/21 01:53:43;;;;;;;7.97;5.20;;;;;;;;;;5073282;28;20170;-65
2022/05/21 01:56:09;;;;;;;4.90;4.27;;;;;;;;;;5073037;28;20663;-66
2022/05/21 01:58:36;;;;;;;4.07;3.67;;;;;;;;;;5072872;28;20324;-65
2022/05/21 02:01:03;;;;;;;4.73;4.00;;;;;;;;;;5072958;28;20714;-65
2022/05/21 02:03:29;;;;;;;5.47;4.13;;;;;;;;;;5072900;28;20208;-65
2022/05/21 02:05:54;;;;;;;5.57;4.70;;;;;;;;;;5073286;28;20181;-65
2022/05/21 02:08:20;;;;;;;6.30;3.53;;;;;;;;;;5054706;28;20194;-65
2022/05/21 02:10:47;;;;;;;4.13;3.60;;;;;;;;;;5054810;28;20174;-65
2022/05/21 02:13:14;;;;;;;4.20;3.13;;;;;;;;;;5073340;28;20258;-65
2022/05/21 02:15:40;;;;;;;3.80;3.30;;;;;;;;;;5073020;28;20186;-65
2022/05/21 02:18:06;;;;;;;3.57;3.03;;;;;;;;;;5072620;28;20285;-65
2022/05/21 02:20:32;;;;;;;4.37;2.90;;;;;;;;;;5072786;28;20185;-65
2022/05/21 02:22:58;;;;;;;5.10;3.33;;;;;;;;;;5054582;28;20292;-65
2022/05/21 02:25:24;;;;;;;5.93;3.13;;;;;;;;;;5073000;28;20546;-65
2022/05/21 02:27:50;;;;;;;3.33;2.73;;;;;;;;;;5072612;28;20544;-65
2022/05/21 02:30:16;;;;;;;3.97;2.73;;;;;;;;;;5073009;28;20511;-65
2022/05/21 02:32:42;;;;;;;4.50;2.60;;;;;;;;;;5073180;28;20193;-65
2022/05/21 02:35:08;;;;;;;4.13;2.30;;;;;;;;;;5075550;28;20178;-65
2022/05/21 02:40:19;;;;;;;3.83;2.40;;;;;;;;;;5076369;28;20177;-65
2022/05/21 02:42:48;;;;;;;4.70;2.40;;;;;;;;;;5076098;28;20662;-65
2022/05/21 02:45:21;;;;;;;4.40;2.73;;;;;;;;;;5076306;28;20642;-64
2022/05/21 02:47:48;;;;;;;4.10;2.73;;;;;;;;;;5075960;28;20649;-65
2022/05/21 02:50:15;;;;;;;2.57;2.37;;;;;;;;;;5076166;28;20178;-65
2022/05/21 02:52:41;;;;;;;4.53;2.67;;;;;;;;;;5075865;28;20181;-64
2022/05/21 02:55:08;;;;;;;3.97;2.70;;;;;;;;;;5075844;28;20185;-65
2022/05/21 02:57:34;;;;;;;3.60;2.30;;;;;;;;;;5075776;28;20185;-65
2022/05/21 03:00:04;;;;;;;6.00;2.83;;;;;;;;;;5075770;28;20173;-65
2022/05/21 03:02:31;;;;;;;3.17;2.60;;;;;;;;;;5075668;28;20197;-65
2022/05/21 03:04:57;;;;;;;3.00;2.50;;;;;;;;;;5075703;28;20169;-65
2022/05/21 03:07:23;;;;;;;4.93;2.70;;;;;;;;;;5075625;28;20178;-65
2022/05/21 03:12:34;;;;;;;4.97;3.43;;;;;;;;;;5076152;28;20199;-65
2022/05/21 03:15:00;;;;;;;5.73;3.43;;;;;;;;;;5075531;28;20665;-65
2022/05/21 03:17:26;;;;;;;4.77;3.13;;;;;;;;;;5075435;28;20178;-65
2022/05/21 03:19:52;;;;;;;6.17;3.37;;;;;;;;;;5075287;28;20209;-64
2022/05/21 03:22:18;;;;;;;3.43;2.97;;;;;;;;;;5075623;28;20328;-65
2022/05/21 03:24:44;;;;;;;8.17;3.87;;;;;;;;;;5075566;28;20299;-65
2022/05/21 03:27:10;;;;;;;4.50;3.87;;;;;;;;;;5075093;28;20260;-65
2022/05/21 03:29:37;;;;;;;6.47;4.10;;;;;;;;;;5075764;28;20209;-64
2022/05/21 03:32:03;;;;;;;7.60;4.37;;;;;;;;;;5075330;28;20202;-65
2022/05/21 03:34:29;;;;;;;6.13;4.37;;;;;;;;;;5075187;28;20239;-64
2022/05/21 03:36:55;;;;;;;6.50;4.40;;;;;;;;;;5057235;28;20179;-65
2022/05/21 03:39:21;;;;;;;6.30;4.00;;;;;;;;;;5075161;28;20197;-65
2022/05/21 03:41:47;;;;;;;6.67;4.53;;;;;;;;;;5075413;28;20265;-65
2022/05/21 03:44:13;;;;;;;7.43;4.20;;;;;;;;;;5059666;28;20634;-65
2022/05/21 03:46:39;;;;;;;6.00;4.60;;;;;;;;;;5074616;28;20177;-65
2022/05/21 03:49:05;;;;;;;6.37;4.13;;;;;;;;;;5057319;28;20204;-65
2022/05/21 03:51:32;;;;;;;5.43;4.27;;;;;;;;;;5075075;28;20216;-65
2022/05/21 03:53:58;;;;;;;8.23;4.20;;;;;;;;;;5075093;28;20178;-65
2022/05/21 03:56:24;;;;;;;6.60;4.17;;;;;;;;;;5074605;28;20186;-64
2022/05/21 04:01:29;;;;;;;5.20;3.97;;;;;;;;;;5053660;28;20222;-66
2022/05/21 04:03:56;;;;;;;6.47;4.40;;;;;;;;;;5054545;28;20170;-66
2022/05/21 04:06:22;;;;;;;7.27;4.47;;;;;;;;;;5054555;28;20166;-66
2022/05/21 04:08:49;;;;;;;5.80;4.37;;;;;;;;;;5036637;28;20174;-66
2022/05/21 04:11:15;;;;;;;5.53;4.37;;;;;;;;;;5054480;28;20286;-66
2022/05/21 04:13:41;;;;;;;5.03;3.80;;;;;;;;;;5055070;28;20571;-66
2022/05/21 04:16:07;;;;;;;5.40;4.60;;;;;;;;;;5054416;28;20178;-66
2022/05/21 04:18:33;;;;;;;4.27;3.83;;;;;;;;;;5036489;28;20197;-66
2022/05/21 04:20:59;;;;;;;9.30;4.90;;;;;;;;;;5054406;28;20217;-66
2022/05/21 04:23:25;;;;;;;7.20;4.80;;;;;;;;;;5054470;28;20275;-66
2022/05/21 04:25:51;;;;;;;6.87;4.70;;;;;;;;;;5054423;28;20175;-66
2022/05/21 04:28:17;;;;;;;6.43;4.47;;;;;;;;;;5036497;28;20179;-66
2022/05/21 04:30:43;;;;;;;5.60;4.60;;;;;;;;;;5054161;28;20581;-67
2022/05/21 04:33:09;;;;;;;5.50;4.40;;;;;;;;;;5036222;28;20179;-66
2022/05/21 04:38:20;;;;;;;7.33;4.40;;;;;;;;;;5054335;28;20173;-67
2022/05/21 04:40:46;;;;;;;6.47;4.23;;;;;;;;;;5054037;28;20195;-66
2022/05/21 04:43:12;;;;;;;7.47;4.13;;;;;;;;;;5035917;28;20584;-66
2022/05/21 04:45:41;;;;;;;5.10;3.70;;;;;;;;;;5054362;28;20175;-66
2022/05/21 04:48:07;;;;;;;4.23;3.60;;;;;;;;;;5036197;28;20182;-66
2022/05/21 04:50:38;;;;;;;7.90;4.13;;;;;;;;;;5053977;28;20288;-66
2022/05/21 04:53:04;;;;;;;6.20;4.53;;;;;;;;;;5054257;28;20550;-67
2022/05/21 04:55:30;;;;;;;5.77;3.93;;;;;;;;;;5036119;28;20182;-66
2022/05/21 04:57:56;;;;;;;6.57;4.50;;;;;;;;;;5035786;28;20233;-67
2022/05/21 05:00:22;;;;;;;10.33;4.40;;;;;;;;;;5053652;28;20241;-67
2022/05/21 05:02:48;;;;;;;6.97;4.10;;;;;;;;;;5053953;28;20203;-66
2022/05/21 05:05:14;;;;;;;4.60;3.77;;;;;;;;;;5053577;28;20308;-66
2022/05/21 05:07:40;;;;;;;6.23;4.50;;;;;;;;;;5053566;28;20666;-67
2022/05/21 05:10:07;;;;;;;6.33;4.27;;;;;;;;;;5053712;28;20226;-67
2022/05/21 05:12:33;;;;;;;7.87;4.47;;;;;;;;;;5035717;28;20265;-66
2022/05/21 05:15:00;;;;;;;5.93;4.40;;;;;;;;;;5035874;28;20564;-67
2022/05/21 05:17:26;;;;;;;8.07;4.30;;;;;;;;;;5053896;28;20178;-67
2022/05/21 05:19:54;;;;;;;7.33;4.03;;;;;;;;;;5053456;28;20200;-66
2022/05/21 05:22:20;;;;;;;7.60;4.80;;;;;;;;;;5053739;28;20232;-67
2022/05/21 05:24:46;;;;;;;6.87;4.77;;;;;;;;;;5035743;28;20174;-67
2022/05/21 05:27:12;;;;;;;5.67;4.17;;;;;;;;;;5035749;28;20552;-67
2022/05/21 05:29:38;;;;;;;5.90;4.27;;;;;;;;;;5053433;28;20202;-67
2022/05/21 05:32:05;;;;;;;12.17;5.23;;;;;;;;;;5053408;28;20244;-66
2022/05/21 05:34:31;;;;;;;7.13;5.27;;;;;;;;;;5053334;28;20201;-67
2022/05/21 05:36:57;;;;;;;5.10;4.20;;;;;;;;;;5053667;28;20650;-66
2022/05/21 05:39:23;;;;;;;7.97;5.23;;;;;;;;;;5035598;28;20209;-66
2022/05/21 05:41:49;;;;;;;5.80;4.97;;;;;;;;;;5035384;28;20213;-66
2022/05/21 05:44:15;;;;;;;6.47;4.77;;;;;;;;;;5053574;28;20716;-66
2022/05/21 05:46:41;;;;;;;5.20;4.70;;;;;;;;;;5053896;28;20179;-66
2022/05/21 05:49:07;;;;;;;7.63;5.10;;;;;;;;;;5053537;28;20528;-66
2022/05/21 05:51:33;;;;;;;8.17;5.47;;;;;;;;;;5053369;28;20179;-66
2022/05/21 05:53:59;;;;;;;8.43;4.77;;;;;;;;;;5035022;28;20186;-66
2022/05/21 05:56:25;;;;;;;7.50;5.03;;;;;;;;;;5035120;28;20187;-67
2022/05/21 06:01:35;;;;;;;5.80;4.40;;;;;;;;;;5053171;28;20201;-67
2022/05/21 06:04:01;;;;;;;7.10;4.60;;;;;;;;;;5052992;28;20262;-66
2022/05/21 06:06:28;;;;;;;7.60;5.30;;;;;;;;;;5052837;28;20178;-66
2022/05/21 06:08:54;;;;;;;8.63;4.63;;;;;;;;;;5036130;28;20269;-67
2022/05/21 06:11:20;;;;;;;6.03;4.87;;;;;;;;;;5056952;28;20202;-66
2022/05/21 06:13:46;;;;;;;7.67;4.03;;;;;;;;;;5057100;28;20179;-66
2022/05/21 06:16:14;;;;;;;9.53;5.03;;;;;;;;;;5039021;28;20265;-66
2022/05/21 06:18:40;;;;;;;8.10;5.17;;;;;;;;;;5056891;28;20171;-66
2022/05/21 06:21:07;;;;;;;8.20;5.00;;;;;;;;;;5056531;28;20252;-66
2022/05/21 06:23:33;;;;;;;6.90;5.10;;;;;;;;;;5038798;28;20670;-66
2022/05/21 06:26:00;;;;;;;6.77;4.73;;;;;;;;;;5038774;28;20182;-66
2022/05/21 06:28:26;;;;;;;8.97;5.07;;;;;;;;;;5038421;28;20183;-66
2022/05/21 06:30:52;;;;;;;8.93;5.37;;;;;;;;;;5056510;28;20194;-69
2022/05/21 06:33:25;;;;;;;8.10;5.87;;;;;;;;;;5056398;28;20248;-66
2022/05/21 06:36:02;;;;;;;7.37;5.00;;;;;;;;;;5056911;28;20611;-66
2022/05/21 06:38:27;;;;;;;8.53;5.67;;;;;;;;;;5038454;28;20257;-67
2022/05/21 06:40:53;;;;;;;5.93;4.87;;;;;;;;;;5038401;28;20706;-66
2022/05/21 06:43:21;;;;;;;7.13;4.77;;;;;;;;;;5056616;28;20611;-67
2022/05/21 06:45:47;;;;;;;9.83;5.47;;;;;;;;;;5056717;28;20221;-67
2022/05/21 06:48:13;;;;;;;7.57;5.17;;;;;;;;;;5038055;28;20581;-67
2022/05/21 06:50:39;;;;;;;8.70;5.13;;;;;;;;;;5056270;28;20190;-67
2022/05/21 06:53:05;;;;;;;9.10;5.00;;;;;;;;;;5038043;28;20292;-67
2022/05/21 06:55:31;;;;;;;10.80;5.87;;;;;;;;;;5056010;28;20269;-66
2022/05/21 06:57:57;;;;;;;9.87;5.10;;;;;;;;;;5037957;28;20216;-67
2022/05/21 07:00:23;;;;;;;8.43;5.40;;;;;;;;;;5055608;28;20218;-66
2022/05/21 07:02:50;;;;;;;7.13;5.20;;;;;;;;;;5055962;28;20194;-66
2022/05/21 07:08:02;;;;;;;11.40;5.17;;;;;;;;;;5055831;28;20209;-66
2022/05/21 07:10:30;;;;;;;9.43;5.60;;;;;;;;;;5055552;28;20281;-66
2022/05/21 07:12:57;;;;;;;8.73;5.23;;;;;;;;;;5037637;28;20219;-67
2022/05/21 07:15:23;;;;;;;10.27;5.33;;;;;;;;;;5055448;28;20534;-66
2022/05/21 07:17:49;;;;;;;7.73;5.63;;;;;;;;;;5055476;28;20228;-66
2022/05/21 07:20:17;;;;;;;9.37;5.97;;;;;;;;;;5054003;28;20238;-66
2022/05/21 07:22:44;;;;;;;12.17;5.87;;;;;;;;;;5037474;28;20234;-67
2022/05/21 07:25:12;;;;;;;7.93;5.30;;;;;;;;;;5055247;28;20183;-67
2022/05/21 07:27:38;;;;;;;8.50;5.70;;;;;;;;;;5037385;28;20265;-66
2022/05/21 07:30:05;;;;;;;9.13;5.53;;;;;;;;;;5055010;28;20285;-66
2022/05/21 07:32:30;;;;;;;8.10;5.80;;;;;;;;;;5037045;28;20563;-66
2022/05/21 07:35:11;;;;;;;8.83;5.83;;;;;;;;;;5037410;28;20183;-67
2022/05/21 07:37:37;;;;;;;12.23;5.90;;;;;;;;;;5055218;28;20185;-66
2022/05/21 07:40:04;;;;;;;9.37;6.27;;;;;;;;;;5054991;28;20198;-67
2022/05/21 07:42:30;;;;;;;9.70;6.37;;;;;;;;;;5037062;28;20202;-66
2022/05/21 07:44:57;;;;;;;9.67;5.30;;;;;;;;;;5055257;28;20177;-67
2022/05/21 07:47:24;;;;;;;9.90;6.53;;;;;;;;;;5054949;28;20185;-66
2022/05/21 07:49:56;;;;;;;13.50;6.07;;;;;;;;;;5055001;28;20743;-66
2022/05/21 07:52:22;;;;;;;10.97;6.03;;;;;;;;;;5054980;28;20641;-67
2022/05/21 07:54:47;;;;;;;12.20;6.80;;;;;;;;;;5054967;28;20175;-67
2022/05/21 07:57:13;;;;;;;10.13;6.23;;;;;;;;;;5054814;28;20178;-67
2022/05/21 07:59:39;;;;;;;11.53;6.17;;;;;;;;;;5054343;28;20213;-66
2022/05/21 08:02:08;;;;;;;14.43;6.70;;;;;;;;;;5054762;28;20655;-66
2022/05/21 08:04:35;;;;;;;11.27;6.27;;;;;;;;;;5054579;28;20201;-67
2022/05/21 08:07:01;;;;;;;9.63;6.50;;;;;;;;;;5036792;28;20182;-67
2022/05/21 08:09:27;;;;;;;12.47;6.13;;;;;;;;;;5054445;28;20194;-66
2022/05/21 08:11:55;;;;;;;9.77;6.70;;;;;;;;;;5036664;28;20281;-66
2022/05/21 08:14:21;;;;;;;13.87;6.67;;;;;;;;;;5054465;28;20209;-67
2022/05/21 08:16:48;;;;;;;9.13;6.37;;;;;;;;;;5054587;28;20188;-66
2022/05/21 08:19:14;;;;;;;15.93;7.10;;;;;;;;;;5036278;28;20182;-66
2022/05/21 08:21:40;;;;;;;14.73;6.80;;;;;;;;;;5036326;28;20232;-66
2022/05/21 08:26:57;;;;;;;14.67;7.20;;;;;;;;;;5054500;28;20270;-67
2022/05/21 08:29:41;;;;;;;9.23;6.63;;;;;;;;;;5054119;28;20674;-66
2022/05/21 08:32:09;;;;;;;10.80;6.70;;;;;;;;;;5035841;28;20669;-66
2022/05/21 08:34:35;;;;;;;11.00;6.70;;;;;;;;;;5054273;28;20244;-66
2022/05/21 08:37:01;;;;;;;10.93;7.17;;;;;;;;;;5036157;28;20186;-67
2022/05/21 08:39:27;;;;;;;10.80;6.90;;;;;;;;;;5053890;28;20208;-66
2022/05/21 08:41:54;;;;;;;9.77;6.20;;;;;;;;;;5053721;28;20198;-67
2022/05/21 08:44:20;;;;;;;11.63;6.00;;;;;;;;;;5053952;28;20197;-66
2022/05/21 08:46:47;;;;;;;11.03;6.17;;;;;;;;;;5053861;28;20633;-67
2022/05/21 08:49:30;;;;;;;8.93;6.03;;;;;;;;;;5053610;28;20174;-66
2022/05/21 08:52:07;;;;;;;10.30;6.70;;;;;;;;;;5054179;28;20227;-66
2022/05/21 08:54:40;;;;;;;14.10;7.00;;;;;;;;;;5053947;28;20293;-66
2022/05/21 08:57:08;;;;;;;8.30;5.67;;;;;;;;;;5053913;28;20642;-66
2022/05/21 08:59:37;;;;;;;11.50;6.37;;;;;;;;;;5053581;28;20248;-66
2022/05/21 09:02:03;;;;;;;11.13;6.53;;;;;;;;;;5053830;28;20277;-67
2022/05/21 09:04:30;;;;;;;12.27;6.10;;;;;;;;;;5053481;28;20650;-66
2022/05/21 09:07:05;;;;;;;13.20;6.83;;;;;;;;;;5053567;28;20261;-67
2022/05/21 09:09:31;;;;;;;11.40;6.50;;;;;;;;;;5053778;28;20194;-66
2022/05/21 09:12:18;;;;;;;14.73;7.40;;;;;;;;;;5053317;28;20539;-67
2022/05/21 09:14:46;;;;;;;11.87;6.70;;;;;;;;;;5035394;28;20186;-66
2022/05/21 09:17:19;;;;;;;11.93;6.63;;;;;;;;;;5053523;28;20175;-67
2022/05/21 09:19:50;;;;;;;10.30;6.20;;;;;;;;;;5053063;28;20237;-66
2022/05/21 09:22:17;;;;;;;9.40;6.53;;;;;;;;;;5053056;28;20228;-67
2022/05/21 09:24:44;;;;;;;11.90;6.83;;;;;;;;;;5053159;28;20524;-67
2022/05/21 09:27:24;;;;;;;11.67;6.80;;;;;;;;;;5053093;28;20170;-66
2022/05/21 09:30:11;;;;;;;12.47;6.67;;;;;;;;;;5035127;28;20545;-67
2022/05/21 09:32:37;;;;;;;11.63;6.40;;;;;;;;;;5053114;28;20159;-67
2022/05/21 09:35:03;;;;;;;9.60;6.90;;;;;;;;;;5035081;28;20223;-66
2022/05/21 09:37:30;;;;;;;9.03;6.33;;;;;;;;;;5053170;28;20182;-67
2022/05/21 09:39:55;;;;;;;9.73;6.17;;;;;;;;;;5035184;28;20237;-66
2022/05/21 09:45:22;;;;;;;8.33;5.97;;;;;;;;;;5056783;28;20173;-67
2022/05/21 09:48:08;;;;;;;11.53;6.67;;;;;;;;;;5057699;28;20220;-67
2022/05/21 09:50:49;;;;;;;9.70;6.03;;;;;;;;;;5022642;28;20210;-66
2022/05/21 09:53:36;;;;;;;7.30;5.23;;;;;;;;;;5057001;28;20280;-66
2022/05/21 09:56:02;;;;;;;8.43;5.63;;;;;;;;;;5056605;28;20530;-67
2022/05/21 09:58:29;;;;;;;10.33;5.80;;;;;;;;;;5057251;28;20178;-67
2022/05/21 10:00:56;;;;;;;6.33;5.70;;;;;;;;;;5056780;28;20210;-67
2022/05/21 10:03:37;;;;;;;14.43;6.30;;;;;;;;;;5056974;28;20673;-66
2022/05/21 10:06:14;;;;;;;10.83;5.77;;;;;;;;;;5056764;28;20185;-66
2022/05/21 10:11:47;;;;;;;9.70;5.73;;;;;;;;;;5056900;28;20213;-66
2022/05/21 10:14:18;;;;;;;8.70;5.17;;;;;;;;;;5056691;28;20177;-67
2022/05/21 10:16:46;;;;;;;6.13;4.87;;;;;;;;;;5056893;28;20189;-67
2022/05/21 10:19:12;;;;;;;12.47;5.77;;;;;;;;;;5056482;28;20193;-66
2022/05/21 10:21:48;;;;;;;5.73;5.03;;;;;;;;;;5056333;28;20667;-67
2022/05/21 10:24:17;;;;;;;7.90;4.83;;;;;;;;;;5038447;28;20178;-67
2022/05/21 10:26:55;;;;;;;14.17;5.43;;;;;;;;;;5038385;28;20261;-67
2022/05/21 10:29:37;;;;;;;10.67;5.03;;;;;;;;;;5038497;28;20198;-67
2022/05/21 10:32:21;;;;;;;7.87;5.40;;;;;;;;;;5056557;28;20174;-66
2022/05/21 10:34:53;;;;;;;7.40;5.13;;;;;;;;;;5040043;28;20556;-69
2022/05/21 10:37:22;;;;;;;12.63;5.63;;;;;;;;;;5056943;28;20166;-66
2022/05/21 10:39:51;;;;;;;6.73;4.67;;;;;;;;;;5055941;28;20195;-66
2022/05/21 10:42:26;;;;;;;8.50;5.33;;;;;;;;;;5056086;28;20284;-67
2022/05/21 10:44:58;;;;;;;6.67;4.27;;;;;;;;;;5056233;28;20174;-67
2022/05/21 10:47:30;;;;;;;5.23;4.17;;;;;;;;;;5056200;28;20213;-67
2022/05/21 10:50:19;;;;;;;6.30;4.13;;;;;;;;;;5055914;28;20281;-68
2022/05/21 10:52:59;;;;;;;5.43;3.77;;;;;;;;;;5038221;28;20194;-67
2022/05/21 10:55:28;;;;;;;7.27;4.70;;;;;;;;;;5055686;28;20178;-67
2022/05/21 10:57:54;;;;;;;9.53;4.70;;;;;;;;;;5055988;28;20646;-67
2022/05/21 11:00:29;;;;;;;11.33;5.47;;;;;;;;;;5055849;28;20221;-67
2022/05/21 11:02:58;;;;;;;13.23;5.23;;;;;;;;;;5037867;28;20209;-66
2022/05/21 11:05:27;;;;;;;7.40;4.63;;;;;;;;;;5056031;28;20174;-67
2022/05/21 11:08:12;;;;;;;7.37;4.63;;;;;;;;;;5056023;28;20175;-67
2022/05/21 11:10:50;;;;;;;8.63;4.90;;;;;;;;;;5055604;28;20194;-67
2022/05/21 11:13:18;;;;;;;6.67;4.40;;;;;;;;;;5056146;28;20181;-67
2022/05/21 11:15:50;;;;;;;8.03;4.63;;;;;;;;;;5037719;28;20266;-67
2022/05/21 11:18:24;;;;;;;8.87;5.47;;;;;;;;;;5055656;28;20673;-67
2022/05/21 11:21:01;;;;;;;5.47;4.63;;;;;;;;;;5038558;28;20214;-67
2022/05/21 11:23:52;;;;;;;6.37;5.07;;;;;;;;;;5055946;28;20194;-67
2022/05/21 11:26:30;;;;;;;9.67;5.10;;;;;;;;;;5037452;28;20649;-67
2022/05/21 11:29:00;;;;;;;7.60;5.13;;;;;;;;;;5037511;28;20551;-67
2022/05/21 11:37:20;;;;;;;5.90;4.80;;;;;;;;;;5055819;28;20173;-66
2022/05/21 11:39:46;;;;;;;6.57;5.10;;;;;;;;;;5037327;28;20199;-66
2022/05/21 11:42:17;;;;;;;6.47;4.07;;;;;;;;;;5055044;28;20241;-67
2022/05/21 11:44:58;;;;;;;6.33;4.23;;;;;;;;;;5037118;28;20262;-67
2022/05/21 11:47:24;;;;;;;4.43;3.93;;;;;;;;;;5054978;28;20544;-67
2022/05/21 11:50:05;;;;;;;10.13;4.63;;;;;;;;;;5054877;28;20265;-66
2022/05/21 11:52:34;;;;;;;7.50;4.33;;;;;;;;;;5054892;28;20162;-66
2022/05/21 11:55:01;;;;;;;7.20;5.00;;;;;;;;;;5055080;28;20608;-66
2022/05/21 11:57:30;;;;;;;7.30;4.60;;;;;;;;;;5037103;28;20554;-67
2022/05/21 11:59:57;;;;;;;8.47;4.30;;;;;;;;;;5054497;28;20285;-66
2022/05/21 12:02:24;;;;;;;5.53;4.30;;;;;;;;;;5055080;28;20211;-67
2022/05/21 12:04:52;;;;;;;5.43;4.10;;;;;;;;;;5054980;28;20259;-66
2022/05/21 12:07:37;;;;;;;7.10;4.20;;;;;;;;;;5054204;28;20744;-67
2022/05/21 12:10:04;;;;;;;5.33;4.03;;;;;;;;;;5054716;28;20191;-67
2022/05/21 12:12:31;;;;;;;6.53;4.57;;;;;;;;;;5054679;28;20218;-67
2022/05/21 12:15:14;;;;;;;8.60;4.60;;;;;;;;;;5054691;28;20540;-67
2022/05/21 12:17:59;;;;;;;9.00;5.17;;;;;;;;;;5054630;28;20265;-67
2022/05/21 12:20:41;;;;;;;8.47;4.50;;;;;;;;;;5036482;28;20216;-68
2022/05/21 12:23:11;;;;;;;8.07;4.40;;;;;;;;;;5054611;28;20201;-67
2022/05/21 12:25:43;;;;;;;5.80;4.73;;;;;;;;;;5054502;28;20182;-67
2022/05/21 12:28:10;;;;;;;6.43;4.67;;;;;;;;;;5036400;28;20178;-67
2022/05/21 12:30:36;;;;;;;6.60;4.40;;;;;;;;;;5054307;28;20197;-68
2022/05/21 12:33:02;;;;;;;6.37;4.77;;;;;;;;;;5036268;28;20174;-67
2022/05/21 12:35:38;;;;;;;7.57;4.40;;;;;;;;;;5054073;28;20631;-67
2022/05/21 12:38:07;;;;;;;8.23;6.00;;;;;;;;;;5036342;28;20178;-66
2022/05/21 12:40:52;;;;;;;7.80;5.87;;;;;;;;;;5054024;28;20206;-66
2022/05/21 12:43:18;;;;;;;7.97;6.27;;;;;;;;;;5053877;28;20209;-67
2022/05/21 12:45:47;;;;;;;6.60;4.97;;;;;;;;;;5054207;28;20183;-66
2022/05/21 12:48:18;;;;;;;8.50;4.70;;;;;;;;;;5053877;28;20220;-66
2022/05/21 12:50:57;;;;;;;7.53;5.10;;;;;;;;;;5053836;28;20194;-67
2022/05/21 12:53:29;;;;;;;7.10;4.40;;;;;;;;;;5053922;28;20189;-66
2022/05/21 12:55:59;;;;;;;7.30;4.30;;;;;;;;;;5053938;28;20536;-67
2022/05/21 12:58:25;;;;;;;7.33;3.80;;;;;;;;;;5035684;28;20555;-67
2022/05/21 13:00:53;;;;;;;6.97;3.87;;;;;;;;;;5053618;28;20245;-66
2022/05/21 13:03:20;;;;;;;7.47;3.67;;;;;;;;;;5053668;28;20288;-67
2022/05/21 13:05:51;;;;;;;7.33;3.73;;;;;;;;;;5053705;28;20185;-66
2022/05/21 13:08:17;;;;;;;9.67;4.50;;;;;;;;;;5053441;28;20209;-67
2022/05/21 13:10:54;;;;;;;9.03;4.20;;;;;;;;;;5053600;28;20216;-66
2022/05/21 13:13:23;;;;;;;7.70;4.00;;;;;;;;;;5054075;28;20209;-66
2022/05/21 13:15:59;;;;;;;6.80;4.57;;;;;;;;;;5053460;28;20174;-67
2022/05/21 13:18:50;;;;;;;8.57;4.57;;;;;;;;;;5053332;28;20225;-67
2022/05/21 13:21:25;;;;;;;4.13;3.73;;;;;;;;;;5053293;28;20206;-67
2022/05/21 13:24:01;;;;;;;9.03;4.57;;;;;;;;;;5035864;28;20189;-67
2022/05/21 13:26:32;;;;;;;5.77;4.47;;;;;;;;;;5053310;28;20518;-66
2022/05/21 13:29:31;;;;;;;6.20;4.03;;;;;;;;;;5035315;28;20182;-66
2022/05/21 13:32:12;;;;;;;5.80;4.20;;;;;;;;;;4982377;28;20242;-64
2022/05/21 13:34:38;;;;;;;6.37;4.00;;;;;;;;;;5053317;28;20189;-65
2022/05/21 13:37:05;;;;;;;6.60;4.33;;;;;;;;;;5053403;28;20179;-65
2022/05/21 13:39:32;;;;;;;6.23;4.67;;;;;;;;;;5053284;28;20312;-65
2022/05/21 13:42:19;;;;;;;12.73;7.40;;;;;;;;;;5035307;28;20236;-65
2022/05/21 13:44:47;;;;;;;6.07;4.13;;;;;;;;;;5035315;28;20197;-65
2022/05/21 13:47:32;;;;;;;5.90;3.33;;;;;;;;;;5035030;28;20669;-65
2022/05/21 13:49:59;;;;;;;6.93;3.97;;;;;;;;;;5035137;28;20647;-65
2022/05/21 13:52:25;;;;;;;6.37;4.37;;;;;;;;;;5053021;28;20244;-65
2022/05/21 13:54:51;;;;;;;7.60;3.97;;;;;;;;;;5053424;28;20584;-65
2022/05/21 13:57:28;;;;;;;7.60;4.50;;;;;;;;;;5053057;28;20555;-68
2022/05/21 14:00:01;;;;;;;7.37;4.60;;;;;;;;;;5034831;28;20339;-65
2022/05/21 14:02:35;;;;;;;5.37;3.70;;;;;;;;;;5053111;28;20202;-65
2022/05/21 14:05:20;;;;;;;4.80;3.63;;;;;;;;;;5035324;28;20185;-65
2022/05/21 14:07:54;;;;;;;5.17;4.00;;;;;;;;;;5053314;28;20184;-65
2022/05/21 14:10:32;;;;;;;6.77;3.80;;;;;;;;;;5053127;28;20199;-65
2022/05/21 14:12:58;;;;;;;7.87;4.87;;;;;;;;;;5053294;28;20159;-65
2022/05/21 14:15:27;;;;;;;9.13;4.57;;;;;;;;;;5052873;28;20270;-65
2022/05/21 14:17:54;;;;;;;6.43;4.13;;;;;;;;;;5053041;28;20178;-65
2022/05/21 14:20:26;;;;;;;5.53;4.00;;;;;;;;;;5052894;28;20305;-65
2022/05/21 14:22:52;;;;;;;8.53;4.27;;;;;;;;;;5053355;28;20215;-65
2022/05/21 14:25:38;;;;;;;5.87;4.10;;;;;;;;;;5052881;28;20202;-65
2022/05/21 14:28:16;;;;;;;6.80;4.87;;;;;;;;;;5053298;28;20204;-64
2022/05/21 14:30:47;;;;;;;5.30;3.40;;;;;;;;;;5037206;28;20222;-64
2022/05/21 14:33:16;;;;;;;5.93;3.50;;;;;;;;;;5057009;28;20198;-65
2022/05/21 14:35:43;;;;;;;8.27;3.50;;;;;;;;;;5056311;28;20171;-64
2022/05/21 14:38:09;;;;;;;6.05;4.10;;;;;;;;;;5055314;28;20381;-65
2022/05/21 14:40:46;;;;;;;5.73;3.37;;;;;;;;;;5038442;28;20205;-65
2022/05/21 14:43:18;;;;;;;4.73;3.50;;;;;;;;;;5038386;28;20620;-65
2022/05/21 14:45:44;;;;;;;6.13;3.80;;;;;;;;;;5056637;28;20167;-64
2022/05/21 14:48:10;;;;;;;5.60;3.67;;;;;;;;;;5056127;28;20186;-65
2022/05/21 14:53:26;;;;;;;5.87;3.77;;;;;;;;;;5056253;28;20564;-65
2022/05/21 14:55:52;;;;;;;6.03;3.50;;;;;;;;;;5056007;28;20612;-65
2022/05/21 14:58:18;;;;;;;6.20;3.93;;;;;;;;;;5038020;28;20611;-64
2022/05/21 15:00:45;;;;;;;6.63;3.77;;;;;;;;;;5037254;28;20574;-63
2022/05/21 15:03:11;;;;;;;5.97;3.70;;;;;;;;;;5055192;28;20268;-65
2022/05/21 15:05:38;;;;;;;4.53;3.97;;;;;;;;;;5054705;28;20205;-65
2022/05/21 15:08:05;;;;;;;4.83;4.13;;;;;;;;;;5054754;28;20232;-65
2022/05/21 15:10:32;;;;;;;6.67;4.30;;;;;;;;;;5054444;28;20281;-64
2022/05/21 15:12:57;;;;;;;5.53;3.97;;;;;;;;;;5036718;28;20185;-64
2022/05/21 15:15:24;;;;;;;7.20;4.00;;;;;;;;;;5054551;28;20186;-65
2022/05/21 15:17:50;;;;;;;4.43;4.03;;;;;;;;;;5036700;28;20552;-65
2022/05/21 15:20:17;;;;;;;4.20;3.80;;;;;;;;;;5036591;28;20222;-65
2022/05/21 15:22:44;;;;;;;9.07;5.10;;;;;;;;;;5036356;28;20202;-65
2022/05/21 15:25:12;;;;;;;5.87;4.13;;;;;;;;;;5036569;28;20179;-65
2022/05/21 15:27:39;;;;;;;7.10;4.50;;;;;;;;;;5054745;28;20265;-66
2022/05/21 15:30:06;;;;;;;7.33;4.73;;;;;;;;;;5036347;28;20202;-65